Time;durP1;ratioP1;P1;durP2;ratioP2;P2;SDS_P1;SDS_P2;PMS_P1;PMS_P2;Temp;Humidity;BMP_temperature;BMP_pressure;BME280_temperature;BME280_humidity;BME280_pressure;Samples;Min_cycle;Max_cycle;Signal;HPM_P1;HPM_P2
2021/04/04 00:01:14;;;;;;;13.90;2.95;;;6.40;99.90;;;;;;5070129;28;20079;-70
2021/04/04 00:03:40;;;;;;;19.95;2.80;;;6.40;99.90;;;;;;5071344;28;20028;-70
2021/04/04 00:06:06;;;;;;;15.80;2.97;;;6.30;99.90;;;;;;5071996;28;20495;-71
2021/04/04 00:08:31;;;;;;;14.98;3.00;;;6.40;99.90;;;;;;5071824;28;20025;-70
2021/04/04 00:10:57;;;;;;;15.25;2.75;;;6.40;99.90;;;;;;5073150;28;20127;-71
2021/04/04 00:13:23;;;;;;;21.77;3.38;;;6.30;99.90;;;;;;5071938;28;20525;-71
2021/04/04 00:15:48;;;;;;;11.27;2.38;;;6.40;99.90;;;;;;5071144;28;20024;-71
2021/04/04 00:18:14;;;;;;;15.73;2.67;;;6.30;99.90;;;;;;5071549;28;20028;-71
2021/04/04 00:20:39;;;;;;;11.60;2.67;;;6.30;99.90;;;;;;5071604;28;20464;-71
2021/04/04 00:23:05;;;;;;;15.77;3.25;;;6.20;99.90;;;;;;5074084;28;20052;-71
2021/04/04 00:25:31;;;;;;;15.07;3.53;;;6.30;99.90;;;;;;5075044;28;20376;-71
2021/04/04 00:28:03;;;;;;;14.20;3.03;;;6.30;99.90;;;;;;5074575;28;20036;-72
2021/04/04 00:30:28;;;;;;;22.60;3.63;;;6.30;99.90;;;;;;5074898;28;20468;-70
2021/04/04 00:32:54;;;;;;;17.98;3.13;;;6.20;99.90;;;;;;5074735;28;20033;-70
2021/04/04 00:35:21;;;;;;;15.80;3.13;;;6.20;99.90;;;;;;5073806;28;20021;-71
2021/04/04 00:37:49;;;;;;;13.32;3.15;;;6.20;99.90;;;;;;5074707;28;20033;-70
2021/04/04 00:40:18;;;;;;;23.08;3.22;;;6.20;99.90;;;;;;5074022;28;20067;-70
2021/04/04 00:42:44;;;;;;;15.88;3.03;;;6.20;99.90;;;;;;5073964;28;20036;-70
2021/04/04 00:45:11;;;;;;;14.98;3.20;;;6.20;99.90;;;;;;5074390;28;20013;-71
2021/04/04 00:47:37;;;;;;;22.05;3.20;;;6.20;99.90;;;;;;5074575;28;20028;-71
2021/04/04 00:50:05;;;;;;;12.75;4.40;;;6.20;99.90;;;;;;5073721;28;20498;-71
2021/04/04 00:52:30;;;;;;;20.63;4.35;;;6.10;99.90;;;;;;5074381;28;20025;-71
2021/04/04 00:54:56;;;;;;;21.55;4.07;;;6.20;99.90;;;;;;5059984;28;20492;-71
2021/04/04 00:57:22;;;;;;;13.45;3.05;;;6.20;99.90;;;;;;5073583;28;20020;-70
2021/04/04 00:59:48;;;;;;;20.25;3.92;;;6.10;99.90;;;;;;5073702;28;20028;-71
2021/04/04 01:02:16;;;;;;;18.85;3.72;;;6.10;99.90;;;;;;5072578;28;20055;-70
2021/04/04 01:04:43;;;;;;;13.63;4.10;;;6.10;99.90;;;;;;5072746;28;20026;-70
2021/04/04 01:07:09;;;;;;;16.90;4.45;;;6.20;99.90;;;;;;5073206;28;20025;-71
2021/04/04 01:09:35;;;;;;;13.50;3.75;;;6.10;99.90;;;;;;5072713;28;20104;-71
2021/04/04 01:12:12;;;;;;;13.80;3.92;;;6.10;99.90;;;;;;5072464;28;20399;-70
2021/04/04 01:14:59;;;;;;;22.27;5.22;;;6.10;99.90;;;;;;5073139;28;20376;-70
2021/04/04 01:17:28;;;;;;;25.23;4.30;;;6.10;99.90;;;;;;5071994;28;20481;-70
2021/04/04 01:20:14;;;;;;;15.07;3.72;;;6.10;99.90;;;;;;5073276;28;20448;-70
2021/04/04 01:22:57;;;;;;;14.13;3.00;;;6.00;99.90;;;;;;5073142;28;20036;-70
2021/04/04 01:25:29;;;;;;;15.70;3.15;;;6.10;99.90;;;;;;5059551;28;20348;-71
2021/04/04 01:28:06;;;;;;;19.27;3.22;;;6.00;99.90;;;;;;5073682;28;20119;-71
2021/04/04 01:30:36;;;;;;;17.67;3.22;;;6.10;99.90;;;;;;5060596;28;20016;-71
2021/04/04 01:33:08;;;;;;;14.95;3.10;;;6.10;99.90;;;;;;5072694;28;20489;-70
2021/04/04 01:35:44;;;;;;;19.35;3.10;;;6.10;99.90;;;;;;5073300;28;20025;-70
2021/04/04 01:38:13;;;;;;;15.07;2.70;;;6.10;99.90;;;;;;5072468;28;20080;-70
2021/04/04 01:40:41;;;;;;;10.10;2.60;;;6.10;99.90;;;;;;5073341;28;20155;-70
2021/04/04 01:43:08;;;;;;;14.45;2.90;;;6.10;99.90;;;;;;5072066;28;20039;-71
2021/04/04 01:45:34;;;;;;;20.10;4.93;;;6.10;99.90;;;;;;5072056;28;20025;-70
2021/04/04 01:48:01;;;;;;;15.63;3.42;;;6.00;99.90;;;;;;5073203;28;20118;-70
2021/04/04 01:50:28;;;;;;;9.18;3.25;;;6.10;99.90;;;;;;5072093;28;20056;-70
2021/04/04 01:52:55;;;;;;;12.20;3.33;;;6.00;99.90;;;;;;5071749;28;20028;-70
2021/04/04 01:55:23;;;;;;;13.30;3.03;;;6.00;99.90;;;;;;5072137;28;20031;-70
2021/04/04 01:57:50;;;;;;;12.80;3.28;;;6.10;99.90;;;;;;5072874;28;20472;-70
2021/04/04 02:00:20;;;;;;;14.02;2.50;;;6.00;99.90;;;;;;5071435;28;20473;-70
2021/04/04 02:02:46;;;;;;;12.63;3.28;;;6.00;99.90;;;;;;5072328;28;20035;-70
2021/04/04 02:05:13;;;;;;;13.70;3.25;;;6.00;99.90;;;;;;5072483;28;20104;-70
2021/04/04 02:07:41;;;;;;;15.45;3.55;;;6.00;99.90;;;;;;5071971;28;20103;-70
2021/04/04 02:10:12;;;;;;;18.33;2.75;;;6.00;99.90;;;;;;5072310;28;20025;-70
2021/04/04 02:12:38;;;;;;;16.92;3.35;;;6.00;99.90;;;;;;5072569;28;20060;-70
2021/04/04 02:15:12;;;;;;;15.18;2.60;;;6.00;99.90;;;;;;5071539;28;20476;-71
2021/04/04 02:17:39;;;;;;;15.65;2.78;;;6.00;99.90;;;;;;5071134;28;20029;-71
2021/04/04 02:20:09;;;;;;;11.18;2.88;;;6.10;99.90;;;;;;5071282;28;20378;-70
2021/04/04 02:22:37;;;;;;;9.60;2.80;;;6.10;99.90;;;;;;5065073;28;20029;-71
2021/04/04 02:25:03;;;;;;;17.48;3.50;;;6.00;99.90;;;;;;5071981;28;20225;-70
2021/04/04 02:27:30;;;;;;;15.52;4.32;;;6.10;99.90;;;;;;5063543;28;20071;-71
2021/04/04 02:29:55;;;;;;;11.57;2.50;;;6.10;99.90;;;;;;5072041;28;20037;-69
2021/04/04 02:32:23;;;;;;;16.83;4.75;;;6.10;99.90;;;;;;5072064;28;20024;-71
2021/04/04 02:34:52;;;;;;;15.25;3.33;;;6.10;99.90;;;;;;5071894;28;20392;-71
2021/04/04 02:37:22;;;;;;;15.07;2.55;;;6.10;99.90;;;;;;5064005;28;20113;-71
2021/04/04 02:39:59;;;;;;;11.48;2.40;;;6.10;99.90;;;;;;5066265;28;20025;-71
2021/04/04 02:42:26;;;;;;;10.30;2.40;;;6.10;99.90;;;;;;5073246;28;20124;-71
2021/04/04 02:44:54;;;;;;;13.27;2.72;;;6.00;99.90;;;;;;5076379;28;20155;-71
2021/04/04 02:47:25;;;;;;;11.85;2.50;;;6.00;99.90;;;;;;5075137;28;20056;-71
2021/04/04 02:49:53;;;;;;;8.02;2.00;;;6.00;99.90;;;;;;5071284;28;20498;-70
2021/04/04 02:52:21;;;;;;;12.75;2.63;;;6.00;99.90;;;;;;5071693;28;20159;-71
2021/04/04 02:54:51;;;;;;;5.55;2.40;;;6.00;99.90;;;;;;5072043;28;20020;-71
2021/04/04 02:57:19;;;;;;;10.27;2.47;;;6.10;99.90;;;;;;5064908;28;20025;-71
2021/04/04 02:59:49;;;;;;;13.18;2.75;;;6.10;99.90;;;;;;5071711;28;20013;-71
2021/04/04 03:02:18;;;;;;;6.93;2.25;;;6.10;99.90;;;;;;5071309;28;20048;-71
2021/04/04 03:04:48;;;;;;;11.77;2.67;;;6.00;99.90;;;;;;5070774;28;20045;-71
2021/04/04 03:07:41;;;;;;;18.70;2.60;;;6.00;99.90;;;;;;5071325;28;20032;-71
2021/04/04 03:10:08;;;;;;;18.77;2.90;;;6.00;99.90;;;;;;5060856;28;20045;-72
2021/04/04 03:12:36;;;;;;;10.88;2.85;;;6.00;99.90;;;;;;5071710;28;20025;-70
2021/04/04 03:15:06;;;;;;;16.45;3.70;;;6.10;99.90;;;;;;5071781;28;20028;-70
2021/04/04 03:17:34;;;;;;;13.65;2.53;;;6.00;99.90;;;;;;5070477;28;20025;-71
2021/04/04 03:20:00;;;;;;;13.88;2.80;;;6.10;99.90;;;;;;5071526;28;20082;-71
2021/04/04 03:22:27;;;;;;;12.23;3.63;;;6.00;99.90;;;;;;5071037;28;20150;-70
2021/04/04 03:24:54;;;;;;;10.65;3.58;;;6.00;99.90;;;;;;5070794;28;20028;-70
2021/04/04 03:27:21;;;;;;;9.52;2.53;;;6.00;99.90;;;;;;5071636;28;20062;-70
2021/04/04 03:29:48;;;;;;;11.88;3.30;;;6.10;99.90;;;;;;5071519;28;20044;-72
2021/04/04 03:32:14;;;;;;;8.90;3.00;;;6.00;99.90;;;;;;5070370;28;20028;-70
2021/04/04 03:34:40;;;;;;;17.20;3.50;;;6.10;99.90;;;;;;5071527;28;20380;-70
2021/04/04 03:37:06;;;;;;;13.63;3.30;;;6.00;99.90;;;;;;5071632;28;20029;-71
2021/04/04 03:39:31;;;;;;;12.48;3.25;;;6.00;99.90;;;;;;5058011;28;20595;-71
2021/04/04 03:42:00;;;;;;;24.80;3.60;;;6.00;99.90;;;;;;5070999;28;20530;-71
2021/04/04 03:44:28;;;;;;;9.93;3.22;;;6.00;99.90;;;;;;5071822;28;20029;-71
2021/04/04 03:46:55;;;;;;;10.95;2.88;;;6.00;99.90;;;;;;5067265;28;20056;-70
2021/04/04 03:49:22;;;;;;;19.23;3.67;;;6.00;99.90;;;;;;5061028;28;20029;-70
2021/04/04 03:51:48;;;;;;;9.93;3.00;;;6.00;99.90;;;;;;5070936;28;20101;-71
2021/04/04 03:54:16;;;;;;;16.10;3.10;;;6.00;99.90;;;;;;5071547;28;20033;-70
2021/04/04 03:56:46;;;;;;;14.65;2.53;;;6.00;99.90;;;;;;5075074;28;20110;-71
2021/04/04 03:59:13;;;;;;;12.88;2.75;;;5.90;99.90;;;;;;5074754;28;20051;-70
2021/04/04 04:01:43;;;;;;;16.33;3.95;;;5.90;99.90;;;;;;5061477;28;20401;-70
2021/04/04 04:04:12;;;;;;;10.50;2.90;;;5.90;99.90;;;;;;5074636;28;20043;-70
2021/04/04 04:06:44;;;;;;;14.88;3.13;;;5.90;99.90;;;;;;5062256;28;20049;-71
2021/04/04 04:09:18;;;;;;;15.40;4.38;;;5.90;99.90;;;;;;5073774;28;20028;-70
2021/04/04 04:11:47;;;;;;;18.35;3.13;;;5.90;99.90;;;;;;5075180;28;20558;-70
2021/04/04 04:14:15;;;;;;;19.15;4.95;;;5.90;99.90;;;;;;5073802;28;20021;-71
2021/04/04 04:16:42;;;;;;;13.38;3.33;;;5.90;99.90;;;;;;5074992;28;20032;-71
2021/04/04 04:19:09;;;;;;;11.43;3.35;;;5.90;99.90;;;;;;5061431;28;20025;-71
2021/04/04 04:21:37;;;;;;;16.45;4.43;;;5.80;99.90;;;;;;5059565;28;20028;-71
2021/04/04 04:24:30;;;;;;;18.15;4.55;;;5.80;99.90;;;;;;5074693;28;20047;-71
2021/04/04 04:26:56;;;;;;;17.63;3.58;;;5.80;99.90;;;;;;5063360;28;20396;-71
2021/04/04 04:29:23;;;;;;;12.88;3.72;;;5.80;99.90;;;;;;5068110;28;20029;-72
2021/04/04 04:31:55;;;;;;;13.98;3.72;;;5.80;99.90;;;;;;5074456;28;20058;-70
2021/04/04 04:34:22;;;;;;;10.60;4.18;;;5.80;99.90;;;;;;5073784;28;20032;-71
2021/04/04 04:36:51;;;;;;;15.80;4.85;;;5.80;99.90;;;;;;5074486;28;20028;-70
2021/04/04 04:39:17;;;;;;;7.97;3.20;;;5.80;99.90;;;;;;5074454;28;20025;-69
2021/04/04 04:41:46;;;;;;;17.35;4.00;;;5.80;99.90;;;;;;5070427;28;20025;-71
2021/04/04 04:44:15;;;;;;;11.88;3.08;;;5.80;99.90;;;;;;5063863;28;20504;-70
2021/04/04 04:46:43;;;;;;;14.45;4.57;;;5.80;99.90;;;;;;5074387;28;20025;-70
2021/04/04 04:49:08;;;;;;;20.92;5.03;;;6.30;99.90;;;;;;5073545;28;20471;-70
2021/04/04 04:51:35;;;;;;;13.52;3.55;;;5.90;99.90;;;;;;5074252;28;20110;-70
2021/04/04 04:54:02;;;;;;;17.25;4.07;;;5.90;99.90;;;;;;5074325;28;20106;-71
2021/04/04 04:56:28;;;;;;;11.60;3.85;;;5.90;99.90;;;;;;5073465;28;20029;-70
2021/04/04 04:58:55;;;;;;;14.40;4.15;;;5.90;99.90;;;;;;5074095;28;20039;-70
2021/04/04 05:01:27;;;;;;;16.50;4.47;;;5.90;99.90;;;;;;5073728;28;20488;-71
2021/04/04 05:03:53;;;;;;;10.70;3.13;;;5.90;99.90;;;;;;5073332;28;20128;-71
2021/04/04 05:06:23;;;;;;;9.02;3.65;;;5.90;99.90;;;;;;5072882;28;20120;-71
2021/04/04 05:08:49;;;;;;;15.30;4.20;;;5.90;99.90;;;;;;5073443;28;20028;-70
2021/04/04 05:11:18;;;;;;;7.78;3.38;;;5.80;99.90;;;;;;5064575;28;20057;-70
2021/04/04 05:13:43;;;;;;;17.58;4.85;;;5.80;99.90;;;;;;5068274;28;20035;-70
2021/04/04 05:16:13;;;;;;;15.35;3.75;;;5.80;99.90;;;;;;5072720;28;20024;-70
2021/04/04 05:18:51;;;;;;;11.50;3.80;;;5.80;99.90;;;;;;5073754;28;20044;-71
2021/04/04 05:21:26;;;;;;;6.65;3.47;;;5.80;99.90;;;;;;5076895;28;20465;-71
2021/04/04 05:24:03;;;;;;;15.35;4.10;;;5.80;99.90;;;;;;5073047;28;20033;-70
2021/04/04 05:26:32;;;;;;;10.20;3.78;;;5.90;99.90;;;;;;5073298;28;20027;-70
2021/04/04 05:29:10;;;;;;;11.35;3.72;;;5.90;99.90;;;;;;5073423;28;20032;-70
2021/04/04 05:31:50;;;;;;;14.68;3.75;;;5.90;99.90;;;;;;5072205;28;20057;-70
2021/04/04 05:34:27;;;;;;;8.77;3.97;;;5.90;99.90;;;;;;5072149;28;20020;-70
2021/04/04 05:36:52;;;;;;;6.15;3.30;;;5.90;99.90;;;;;;5072141;28;20082;-70
2021/04/04 05:39:20;;;;;;;13.40;3.50;;;5.90;99.90;;;;;;5072534;28;20012;-70
2021/04/04 05:41:51;;;;;;;16.08;4.82;;;6.00;99.90;;;;;;5073888;28;20031;-70
2021/04/04 05:44:22;;;;;;;13.57;3.75;;;5.90;99.90;;;;;;5071479;28;20029;-71
2021/04/04 05:46:55;;;;;;;16.00;3.58;;;6.00;99.90;;;;;;5072503;28;20024;-70
2021/04/04 05:50:01;;;;;;;13.50;3.33;;;6.00;99.90;;;;;;5072030;28;20031;-71
2021/04/04 05:52:33;;;;;;;12.98;4.15;;;6.00;99.90;;;;;;5059318;28;20063;-71
2021/04/04 05:55:20;;;;;;;16.48;3.63;;;6.00;99.90;;;;;;5072396;28;20021;-70
2021/04/04 05:57:54;;;;;;;7.53;3.55;;;6.00;99.90;;;;;;5072694;28;20017;-70
2021/04/04 06:00:22;;;;;;;17.38;3.83;;;6.00;99.90;;;;;;5067056;28;20567;-70
2021/04/04 06:03:11;;;;;;;10.25;3.80;;;6.00;99.90;;;;;;5085994;28;20044;-71
2021/04/04 06:06:01;;;;;;;17.15;4.20;;;6.00;99.90;;;;;;5085435;28;20091;-70
2021/04/04 06:08:48;;;;;;;13.13;3.30;;;5.90;99.90;;;;;;5087458;28;20115;-70
2021/04/04 06:11:37;;;;;;;13.02;3.70;;;5.90;99.90;;;;;;5086037;28;20020;-71
2021/04/04 06:14:33;;;;;;;12.60;4.47;;;5.90;99.90;;;;;;5085591;28;20043;-70
2021/04/04 06:17:41;;;;;;;13.07;4.63;;;6.00;99.90;;;;;;5079728;28;20487;-70
2021/04/04 06:20:28;;;;;;;8.13;4.05;;;6.00;99.90;;;;;;5002469;28;20199;-70
2021/04/04 06:23:19;;;;;;;7.78;4.57;;;6.00;99.90;;;;;;5007033;28;20486;-70
2021/04/04 06:26:12;;;;;;;13.98;4.10;;;6.00;99.90;;;;;;5056878;28;20123;-70
2021/04/04 06:29:10;;;;;;;12.30;4.65;;;6.00;99.90;;;;;;5075882;28;20391;-70
2021/04/04 06:31:57;;;;;;;14.43;5.55;;;6.10;99.90;;;;;;5074245;28;20367;-70
2021/04/04 06:34:29;;;;;;;24.63;7.43;;;6.00;99.90;;;;;;5077902;28;20015;-71
2021/04/04 06:37:37;;;;;;;20.13;6.28;;;6.10;99.90;;;;;;5073297;28;20028;-70
2021/04/04 06:40:07;;;;;;;14.00;5.55;;;6.10;99.90;;;;;;5036267;28;20028;-70
2021/04/04 06:42:46;;;;;;;16.05;5.97;;;6.10;99.90;;;;;;5075069;28;20063;-70
2021/04/04 06:45:35;;;;;;;11.15;6.60;;;6.20;99.90;;;;;;5083769;28;20420;-70
2021/04/04 06:48:15;;;;;;;17.70;6.88;;;6.20;99.90;;;;;;5072064;28;20179;-70
2021/04/04 06:50:48;;;;;;;14.90;7.28;;;6.20;99.90;;;;;;5083501;28;20472;-71
2021/04/04 06:53:52;;;;;;;13.25;7.25;;;6.20;99.90;;;;;;5085335;28;20028;-70
2021/04/04 06:56:50;;;;;;;18.02;6.32;;;6.20;99.90;;;;;;5083925;28;20139;-71
2021/04/04 06:59:24;;;;;;;20.23;6.30;;;6.20;99.90;;;;;;5075354;28;20056;-71
2021/04/04 07:02:05;;;;;;;19.38;4.85;;;6.30;99.90;;;;;;5083720;28;20054;-71
2021/04/04 07:04:56;;;;;;;10.40;3.70;;;6.30;99.90;;;;;;5084353;28;20032;-71
2021/04/04 07:07:30;;;;;;;11.27;2.70;;;6.30;99.90;;;;;;5081181;28;20540;-71
2021/04/04 07:10:11;;;;;;;10.38;2.83;;;6.30;99.90;;;;;;5083951;28;20036;-71
2021/04/04 07:12:55;;;;;;;6.78;2.53;;;6.30;99.90;;;;;;5086235;28;20103;-72
2021/04/04 07:15:41;;;;;;;10.73;3.15;;;6.30;99.90;;;;;;5087263;28;20024;-72
2021/04/04 07:18:22;;;;;;;7.47;2.25;;;6.30;99.90;;;;;;5075275;28;20024;-73
2021/04/04 07:21:05;;;;;;;8.13;2.63;;;6.30;99.90;;;;;;5088540;28;20032;-74
2021/04/04 07:23:55;;;;;;;11.55;3.75;;;6.30;99.90;;;;;;5079702;28;20391;-73
2021/04/04 07:26:51;;;;;;;7.25;2.25;;;6.30;99.90;;;;;;5078832;28;20053;-73
2021/04/04 07:29:41;;;;;;;6.15;1.88;;;6.40;99.90;;;;;;5086155;28;20473;-73
2021/04/04 07:32:16;;;;;;;12.27;2.40;;;6.30;99.90;;;;;;5084327;28;20052;-73
2021/04/04 07:35:19;;;;;;;8.00;2.10;;;6.30;99.90;;;;;;5084003;28;20562;-76
2021/04/04 07:38:12;;;;;;;6.47;2.60;;;6.30;99.90;;;;;;5059178;28;20029;-76
2021/04/04 07:40:54;;;;;;;3.58;2.28;;;6.40;99.90;;;;;;5068507;28;20045;-75
2021/04/04 07:43:38;;;;;;;5.60;3.38;;;6.40;99.90;;;;;;5058868;28;20476;-76
2021/04/04 07:46:11;;;;;;;9.50;3.38;;;6.50;99.90;;;;;;5066565;28;20035;-76
2021/04/04 07:48:55;;;;;;;6.05;2.50;;;6.60;99.90;;;;;;5075387;28;20419;-75
2021/04/04 07:51:28;;;;;;;9.05;2.55;;;6.60;99.90;;;;;;5074657;28;20048;-75
2021/04/04 07:54:02;;;;;;;9.05;3.78;;;6.60;99.90;;;;;;5075316;28;20488;-75
2021/04/04 07:56:38;;;;;;;7.43;2.97;;;6.70;99.90;;;;;;5075285;28;20024;-77
2021/04/04 07:59:27;;;;;;;7.63;2.88;;;6.70;99.90;;;;;;5074760;28;20020;-76
2021/04/04 08:02:16;;;;;;;9.10;2.80;;;6.80;99.90;;;;;;5075311;28;20126;-76
2021/04/04 08:04:50;;;;;;;13.02;3.15;;;6.80;99.90;;;;;;5065650;28;20503;-76
2021/04/04 08:07:29;;;;;;;5.35;3.10;;;6.80;99.90;;;;;;5074005;28;20020;-73
2021/04/04 08:10:09;;;;;;;7.43;2.97;;;6.80;99.90;;;;;;5074905;28;20033;-75
2021/04/04 08:12:50;;;;;;;8.13;3.67;;;6.90;99.90;;;;;;5074643;28;20146;-75
2021/04/04 08:15:29;;;;;;;12.85;3.28;;;6.90;99.90;;;;;;5075044;28;20027;-74
2021/04/04 08:17:55;;;;;;;13.75;3.20;;;6.90;99.90;;;;;;5061763;28;20027;-75
2021/04/04 08:20:36;;;;;;;9.75;3.20;;;6.90;99.90;;;;;;5065854;28;20017;-75
2021/04/04 08:23:09;;;;;;;13.98;3.30;;;7.00;99.90;;;;;;5060633;28;20484;-75
2021/04/04 08:25:44;;;;;;;9.60;3.58;;;7.10;99.90;;;;;;5057199;28;20029;-76
2021/04/04 08:28:34;;;;;;;14.75;4.18;;;7.10;99.90;;;;;;5057053;28;20021;-75
2021/04/04 08:31:11;;;;;;;14.65;3.85;;;7.10;99.90;;;;;;5065396;28;20040;-77
2021/04/04 08:33:49;;;;;;;11.13;3.60;;;7.10;99.90;;;;;;5062126;28;20100;-75
2021/04/04 08:36:19;;;;;;;7.90;4.10;;;7.10;99.90;;;;;;5070260;28;20021;-75
2021/04/04 08:38:48;;;;;;;8.73;3.85;;;7.10;99.90;;;;;;5070967;28;20123;-76
2021/04/04 08:41:16;;;;;;;16.58;4.35;;;7.10;99.90;;;;;;5065687;28;20369;-76
2021/04/04 08:43:58;;;;;;;11.30;3.80;;;7.10;99.90;;;;;;5074856;28;20039;-76
2021/04/04 08:46:52;;;;;;;17.40;4.95;;;7.10;99.90;;;;;;5072096;28;20423;-77
2021/04/04 08:49:19;;;;;;;14.18;5.75;;;7.20;99.90;;;;;;5074801;28;20028;-76
2021/04/04 08:52:02;;;;;;;10.20;4.13;;;7.30;99.90;;;;;;5071927;28;20025;-74
2021/04/04 08:54:29;;;;;;;13.57;4.05;;;7.10;99.90;;;;;;5086494;28;20039;-75
2021/04/04 08:56:57;;;;;;;12.57;4.22;;;7.10;99.90;;;;;;5085182;28;20028;-74
2021/04/04 08:59:32;;;;;;;16.98;4.53;;;7.20;99.90;;;;;;5082579;28;20025;-75
2021/04/04 09:02:07;;;;;;;12.90;4.32;;;7.30;99.90;;;;;;5086092;28;20051;-74
2021/04/04 09:04:34;;;;;;;10.10;4.15;;;7.40;99.90;;;;;;5086818;28;20028;-76
2021/04/04 09:07:04;;;;;;;9.88;3.47;;;7.50;99.90;;;;;;5088499;28;20024;-76
2021/04/04 09:09:39;;;;;;;17.00;5.30;;;7.50;99.90;;;;;;5079273;28;20099;-76
2021/04/04 09:12:05;;;;;;;12.82;4.57;;;7.60;99.90;;;;;;5053637;28;20036;-75
2021/04/04 09:14:42;;;;;;;11.85;4.40;;;7.70;99.90;;;;;;5086058;28;20070;-76
2021/04/04 09:17:18;;;;;;;8.82;3.80;;;7.70;99.90;;;;;;5089079;28;20031;-76
2021/04/04 09:19:46;;;;;;;13.23;3.97;;;7.70;99.90;;;;;;5081773;28;20103;-75
2021/04/04 09:22:20;;;;;;;8.95;4.38;;;7.80;99.90;;;;;;5087776;28;20043;-75
2021/04/04 09:25:06;;;;;;;9.38;3.70;;;7.80;99.90;;;;;;5072463;28;20543;-74
2021/04/04 09:27:40;;;;;;;9.55;4.38;;;7.90;99.90;;;;;;5074163;28;20028;-74
2021/04/04 09:30:34;;;;;;;10.60;4.43;;;7.90;99.90;;;;;;5077520;28;20428;-75
2021/04/04 09:33:06;;;;;;;17.67;4.55;;;7.90;99.90;;;;;;5076701;28;20036;-75
2021/04/04 09:35:32;;;;;;;12.02;4.22;;;7.90;99.90;;;;;;5076304;28;20048;-75
2021/04/04 09:38:03;;;;;;;11.02;4.10;;;7.90;99.90;;;;;;5073995;28;20017;-75
2021/04/04 09:40:29;;;;;;;;;;;7.80;99.90;;;;;;5076817;28;20028;-75
2021/04/04 09:43:04;;;;;;;11.63;3.58;;;7.80;99.90;;;;;;5077697;28;21674;-75
2021/04/04 09:45:29;;;;;;;11.65;4.00;;;7.80;99.90;;;;;;5073408;28;20020;-75
2021/04/04 09:47:55;;;;;;;13.95;4.07;;;7.70;99.90;;;;;;5075608;28;20034;-74
2021/04/04 09:50:25;;;;;;;16.02;4.60;;;7.80;99.90;;;;;;5076424;28;20104;-74
2021/04/04 09:52:53;;;;;;;11.00;4.15;;;7.70;99.90;;;;;;5073740;28;20058;-74
2021/04/04 09:55:21;;;;;;;9.23;3.55;;;7.80;99.90;;;;;;5074341;28;20021;-74
2021/04/04 09:57:51;;;;;;;10.48;4.55;;;7.90;99.90;;;;;;5077047;28;20135;-74
2021/04/04 10:00:26;;;;;;;14.65;4.72;;;8.00;99.90;;;;;;5082372;28;20127;-74
2021/04/04 10:02:53;;;;;;;14.52;4.43;;;8.00;99.90;;;;;;5086085;28;20119;-75
2021/04/04 10:05:37;;;;;;;11.52;4.47;;;8.10;99.90;;;;;;5079187;28;20077;-75
2021/04/04 10:08:12;;;;;;;12.25;4.32;;;8.10;99.90;;;;;;5086240;28;20032;-71
2021/04/04 10:10:40;;;;;;;13.48;4.63;;;8.20;99.90;;;;;;5074604;28;20047;-75
2021/04/04 10:13:05;;;;;;;11.63;5.65;;;8.30;99.90;;;;;;5076330;28;20110;-73
2021/04/04 10:15:42;;;;;;;17.88;6.07;;;8.30;99.90;;;;;;5077045;28;20008;-74
2021/04/04 10:18:07;;;;;;;19.55;5.35;;;8.30;99.90;;;;;;5074665;28;20047;-74
2021/04/04 10:20:51;;;;;;;9.75;5.05;;;8.40;99.90;;;;;;5077620;28;20480;-75
2021/04/04 10:23:17;;;;;;;13.38;4.53;;;8.40;99.90;;;;;;5079411;28;20112;-75
2021/04/04 10:25:59;;;;;;;9.10;4.20;;;8.50;99.90;;;;;;5074600;28;20027;-74
2021/04/04 10:28:41;;;;;;;9.95;5.03;;;8.60;99.90;;;;;;5074671;28;20062;-74
2021/04/04 10:31:06;;;;;;;9.30;4.13;;;8.70;99.90;;;;;;5076014;28;20491;-74
2021/04/04 10:33:32;;;;;;;9.02;4.00;;;8.70;99.90;;;;;;5074952;28;20037;-75
2021/04/04 10:36:20;;;;;;;9.35;3.97;;;8.80;99.90;;;;;;5077771;28;20044;-75
2021/04/04 10:38:46;;;;;;;10.80;4.85;;;8.90;99.90;;;;;;5072364;28;20476;-74
2021/04/04 10:41:23;;;;;;;11.73;4.65;;;9.00;99.90;;;;;;5075387;28;20077;-75
2021/04/04 10:43:50;;;;;;;8.25;4.07;;;9.00;99.90;;;;;;5076549;28;20036;-74
2021/04/04 10:46:16;;;;;;;8.45;4.68;;;9.00;99.90;;;;;;5078367;28;20031;-73
2021/04/04 10:48:48;;;;;;;12.07;4.68;;;9.00;99.90;;;;;;5068451;28;20021;-75
2021/04/04 10:51:19;;;;;;;10.95;4.22;;;9.00;99.90;;;;;;5069730;28;20904;-74
2021/04/04 10:53:45;;;;;;;;;;;9.10;99.90;;;;;;5073697;28;20039;-74
2021/04/04 10:56:13;;;;;;;13.35;4.38;;;9.10;99.90;;;;;;5072871;28;19947;-74
2021/04/04 10:58:39;;;;;;;12.02;4.82;;;9.10;99.90;;;;;;5074784;28;20111;-73
2021/04/04 11:01:07;;;;;;;7.05;4.40;;;9.10;99.90;;;;;;5072880;28;20572;-74
2021/04/04 11:03:33;;;;;;;14.35;5.63;;;9.00;99.90;;;;;;5071567;28;20043;-75
2021/04/04 11:06:00;;;;;;;15.90;5.35;;;9.10;99.90;;;;;;5073882;28;20020;-75
2021/04/04 11:08:26;;;;;;;13.93;5.72;;;9.10;99.90;;;;;;5076888;28;20498;-74
2021/04/04 11:10:52;;;;;;;11.18;5.70;;;9.20;99.90;;;;;;5070323;28;20118;-74
2021/04/04 11:13:22;;;;;;;16.42;5.70;;;9.20;99.90;;;;;;5079039;28;20491;-75
2021/04/04 11:15:53;;;;;;;12.70;5.65;;;9.20;99.90;;;;;;5086266;28;20024;-75
2021/04/04 11:18:41;;;;;;;11.50;5.60;;;9.40;99.90;;;;;;5086392;28;20028;-75
2021/04/04 11:21:12;;;;;;;16.83;5.32;;;9.40;99.90;;;;;;5084427;28;20375;-75
2021/04/04 11:23:38;;;;;;;9.30;4.70;;;9.50;99.90;;;;;;5068815;28;20040;-75
2021/04/04 11:26:35;;;;;;;12.32;5.03;;;9.40;99.90;;;;;;5058086;28;20178;-75
2021/04/04 11:29:15;;;;;;;10.55;4.78;;;9.50;99.90;;;;;;5067516;28;20025;-74
2021/04/04 11:31:43;;;;;;;11.40;4.82;;;9.50;99.90;;;;;;5064675;28;20063;-74
2021/04/04 11:34:40;;;;;;;20.73;5.18;;;9.60;99.90;;;;;;5065941;28;20028;-75
2021/04/04 11:37:11;;;;;;;16.70;6.20;;;9.60;99.90;;;;;;5064939;28;20021;-75
2021/04/04 11:39:38;;;;;;;11.40;5.30;;;9.60;99.90;;;;;;5063244;28;20017;-74
2021/04/04 11:42:05;;;;;;;11.65;4.80;;;9.60;99.90;;;;;;5056677;28;20403;-74
2021/04/04 11:44:32;;;;;;;8.95;4.93;;;9.70;99.90;;;;;;5063530;28;20024;-75
2021/04/04 11:46:59;;;;;;;7.10;4.45;;;9.80;99.90;;;;;;5067016;28;20025;-74
2021/04/04 11:49:28;;;;;;;12.60;5.72;;;9.80;99.90;;;;;;5067308;28;20017;-74
2021/04/04 11:51:57;;;;;;;11.65;5.68;;;9.90;99.90;;;;;;5066120;28;20032;-74
2021/04/04 11:54:41;;;;;;;8.07;4.43;;;9.80;99.90;;;;;;5063244;28;20021;-74
2021/04/04 11:57:07;;;;;;;12.50;5.22;;;9.80;99.90;;;;;;5065917;28;20515;-75
2021/04/04 11:59:32;;;;;;;14.38;5.50;;;9.80;99.90;;;;;;5060842;28;20415;-74
2021/04/04 12:01:58;;;;;;;16.50;5.45;;;9.90;99.90;;;;;;5057558;28;20091;-74
2021/04/04 12:04:30;;;;;;;15.27;4.72;;;10.00;99.90;;;;;;5064873;28;20033;-75
2021/04/04 12:07:09;;;;;;;15.05;5.55;;;10.00;99.90;;;;;;5065459;28;20031;-74
2021/04/04 12:09:36;;;;;;;13.10;4.95;;;10.20;99.90;;;;;;5074849;28;20033;-75
2021/04/04 12:12:03;;;;;;;12.50;4.60;;;10.20;99.90;;;;;;5072204;28;20013;-74
2021/04/04 12:14:44;;;;;;;8.98;5.50;;;10.20;99.90;;;;;;5071140;28;20024;-75
2021/04/04 12:17:09;;;;;;;10.10;4.82;;;10.20;99.90;;;;;;5066482;28;20111;-76
2021/04/04 12:19:35;;;;;;;10.98;5.05;;;10.20;99.90;;;;;;5066511;28;20033;-76
2021/04/04 12:22:00;;;;;;;11.20;5.13;;;10.30;99.90;;;;;;5070475;28;20048;-76
2021/04/04 12:24:49;;;;;;;11.93;5.20;;;10.50;99.90;;;;;;5065360;28;20035;-76
2021/04/04 12:27:19;;;;;;;12.23;4.70;;;10.70;99.90;;;;;;5069850;28;20036;-76
2021/04/04 12:29:47;;;;;;;13.93;5.47;;;10.80;99.90;;;;;;5066468;28;20526;-75
2021/04/04 12:32:21;;;;;;;18.67;4.97;;;10.80;99.90;;;;;;5069350;28;20047;-75
2021/04/04 12:34:48;;;;;;;6.85;4.30;;;10.90;99.90;;;;;;5073199;28;20035;-76
2021/04/04 12:37:15;;;;;;;6.93;4.68;;;11.10;99.90;;;;;;5070881;28;20032;-75
2021/04/04 12:39:41;;;;;;;15.30;5.22;;;11.20;99.90;;;;;;5069266;28;20102;-75
2021/04/04 12:42:09;;;;;;;10.13;5.22;;;11.20;99.90;;;;;;5070604;28;20032;-75
2021/04/04 12:44:36;;;;;;;10.65;4.72;;;11.10;98.90;;;;;;5069700;28;20333;-75
2021/04/04 12:47:06;;;;;;;8.45;4.82;;;11.10;99.60;;;;;;5072322;28;20025;-76
2021/04/04 12:49:32;;;;;;;6.95;4.78;;;11.20;99.90;;;;;;5073631;28;20024;-75
2021/04/04 12:51:57;;;;;;;10.38;4.35;;;11.20;99.70;;;;;;5069454;28;20029;-74
2021/04/04 12:54:24;;;;;;;14.48;4.50;;;11.10;99.60;;;;;;5070872;28;20248;-75
2021/04/04 12:56:50;;;;;;;12.55;4.82;;;11.10;99.90;;;;;;5063662;28;20397;-75
2021/04/04 12:59:16;;;;;;;7.57;4.78;;;11.00;99.90;;;;;;5067849;28;20354;-76
2021/04/04 13:01:46;;;;;;;9.13;4.35;;;11.00;99.90;;;;;;5068152;28;20086;-76
2021/04/04 13:04:17;;;;;;;12.70;5.27;;;11.00;99.90;;;;;;5068317;28;20371;-76
2021/04/04 13:06:43;;;;;;;;;;;11.10;99.90;;;;;;5069626;28;20404;-73
2021/04/04 13:09:11;;;;;;;13.00;4.45;;;11.20;99.90;;;;;;5072874;28;19956;-74
2021/04/04 13:11:37;;;;;;;18.67;6.07;;;11.20;99.30;;;;;;5072897;28;20031;-74
2021/04/04 13:14:03;;;;;;;10.13;5.00;;;11.10;99.10;;;;;;5073827;28;20040;-75
2021/04/04 13:16:28;;;;;;;9.52;4.82;;;11.10;99.80;;;;;;5072778;28;20020;-73